createdAt,value
2016-10-25T00:00:22.939Z,1007.5
2016-10-25T00:01:22.874Z,1007.51
2016-10-25T00:02:22.860Z,1007.51
2016-10-25T00:03:22.847Z,1007.46
2016-10-25T00:04:22.829Z,1007.47
2016-10-25T00:05:22.818Z,1007.48
2016-10-25T00:06:22.803Z,1007.47
2016-10-25T00:07:22.788Z,1007.47
2016-10-25T00:08:22.773Z,1007.5
2016-10-25T00:09:22.758Z,1007.48
2016-10-25T00:10:22.746Z,1007.53
2016-10-25T00:11:22.729Z,1007.48
2016-10-25T00:12:22.717Z,1007.52
2016-10-25T00:13:22.701Z,1007.51
2016-10-25T00:14:22.688Z,1007.49
2016-10-25T00:15:22.672Z,1007.51
2016-10-25T00:16:22.665Z,1007.5
2016-10-25T00:17:22.647Z,1007.57
2016-10-25T00:18:22.631Z,1007.54
2016-10-25T00:19:22.615Z,1007.55
2016-10-25T00:20:22.602Z,1007.58
2016-10-25T00:21:22.586Z,1007.58
2016-10-25T00:22:22.570Z,1007.59
2016-10-25T00:23:22.558Z,1007.55
2016-10-25T00:24:22.546Z,1007.55
2016-10-25T00:25:22.529Z,1007.51
2016-10-25T00:26:22.514Z,1007.51
2016-10-25T00:27:22.499Z,1007.5
2016-10-25T00:28:22.485Z,1007.49
2016-10-25T00:29:22.470Z,1007.47
2016-10-25T00:30:22.455Z,1007.49
2016-10-25T00:31:22.441Z,1007.5
2016-10-25T00:32:22.475Z,1007.55
2016-10-25T00:33:22.411Z,1007.53
2016-10-25T00:34:22.397Z,1007.56
2016-10-25T00:35:22.384Z,1007.59
2016-10-25T00:36:22.369Z,1007.62
2016-10-25T00:37:22.352Z,1007.59
2016-10-25T00:38:22.343Z,1007.57
2016-10-25T00:39:22.327Z,1007.57
2016-10-25T00:40:22.312Z,1007.62
2016-10-25T00:41:22.295Z,1007.65
2016-10-25T00:42:22.279Z,1007.63
2016-10-25T00:43:22.268Z,1007.62
2016-10-25T00:44:22.250Z,1007.66
2016-10-25T00:45:22.236Z,1007.6
2016-10-25T00:46:22.221Z,1007.63
2016-10-25T00:47:22.208Z,1007.65
2016-10-25T00:48:22.192Z,1007.64
2016-10-25T00:49:22.177Z,1007.67
2016-10-25T00:50:22.163Z,1007.7
2016-10-25T00:51:22.150Z,1007.72
2016-10-25T00:52:22.137Z,1007.67
2016-10-25T00:53:22.121Z,1007.71
2016-10-25T00:54:22.106Z,1007.75
2016-10-25T00:55:22.089Z,1007.75
2016-10-25T00:56:22.075Z,1007.82
2016-10-25T00:57:22.061Z,1007.8
2016-10-25T00:58:22.045Z,1007.81
2016-10-25T00:59:22.031Z,1007.77
2016-10-25T01:00:22.016Z,1007.77
2016-10-25T01:01:22.052Z,1007.78
2016-10-25T01:02:21.989Z,1007.78
2016-10-25T01:03:22.021Z,1007.75
2016-10-25T01:04:21.957Z,1007.78
2016-10-25T01:05:21.944Z,1007.82
2016-10-25T01:06:21.930Z,1007.84
2016-10-25T01:07:21.914Z,1007.85
2016-10-25T01:08:21.900Z,1007.85
2016-10-25T01:09:21.884Z,1007.88
2016-10-25T01:10:21.871Z,1007.9
2016-10-25T01:11:21.855Z,1007.87
2016-10-25T01:12:21.841Z,1007.86
2016-10-25T01:13:21.827Z,1007.87
2016-10-25T01:14:21.811Z,1007.84
2016-10-25T01:15:21.796Z,1007.89
2016-10-25T01:16:21.782Z,1007.91
2016-10-25T01:17:21.766Z,1007.91
2016-10-25T01:18:21.754Z,1007.92
2016-10-25T01:19:21.742Z,1007.92
2016-10-25T01:20:21.723Z,1007.93
2016-10-25T01:21:21.716Z,1007.94
2016-10-25T01:22:21.696Z,1007.96
2016-10-25T01:23:21.694Z,1007.98
2016-10-25T01:24:21.667Z,1008.03
2016-10-25T01:25:21.655Z,1008.03
2016-10-25T01:26:21.635Z,1008.06
2016-10-25T01:27:21.622Z,1008.05
2016-10-25T01:28:21.606Z,1008.07
2016-10-25T01:29:21.590Z,1008.08
2016-10-25T01:30:21.578Z,1008.08
2016-10-25T01:31:21.565Z,1008.13
2016-10-25T01:32:21.546Z,1008.14
2016-10-25T01:33:21.534Z,1008.14
2016-10-25T01:34:21.518Z,1008.17
2016-10-25T01:35:21.504Z,1008.14
2016-10-25T01:36:21.489Z,1008.2
2016-10-25T01:37:21.473Z,1008.23
2016-10-25T01:38:21.462Z,1008.19
2016-10-25T01:39:21.444Z,1008.19
2016-10-25T01:40:21.429Z,1008.24
2016-10-25T01:41:21.417Z,1008.26
2016-10-25T01:42:21.403Z,1008.29
2016-10-25T01:43:21.387Z,1008.29
2016-10-25T01:44:21.371Z,1008.33
2016-10-25T01:45:21.357Z,1008.35
2016-10-25T01:46:21.344Z,1008.34
2016-10-25T01:47:21.329Z,1008.36
2016-10-25T01:48:21.316Z,1008.33
2016-10-25T01:49:21.300Z,1008.35
2016-10-25T01:50:21.487Z,1008.33
2016-10-25T01:51:21.273Z,1008.36
2016-10-25T01:52:21.257Z,1008.34
2016-10-25T01:53:21.240Z,1008.42
2016-10-25T01:54:21.225Z,1008.39
2016-10-25T01:55:21.212Z,1008.41
2016-10-25T01:56:21.196Z,1008.37
2016-10-25T01:57:21.183Z,1008.37
2016-10-25T01:58:21.168Z,1008.39
2016-10-25T01:59:21.154Z,1008.41
2016-10-25T02:00:21.140Z,1008.42
2016-10-25T02:01:21.124Z,1008.43
2016-10-25T02:02:21.113Z,1008.46
2016-10-25T02:03:21.097Z,1008.47
2016-10-25T02:04:21.082Z,1008.45
2016-10-25T02:05:21.067Z,1008.53
2016-10-25T02:06:21.050Z,1008.48
2016-10-25T02:07:21.038Z,1008.53
2016-10-25T02:08:21.022Z,1008.51
2016-10-25T02:09:21.010Z,1008.53
2016-10-25T02:10:20.995Z,1008.54
2016-10-25T02:11:20.980Z,1008.54
2016-10-25T02:12:20.963Z,1008.54
2016-10-25T02:13:20.949Z,1008.52
2016-10-25T02:14:20.935Z,1008.54
2016-10-25T02:15:20.921Z,1008.51
2016-10-25T02:16:20.905Z,1008.55
2016-10-25T02:17:20.891Z,1008.56
2016-10-25T02:18:20.878Z,1008.54
2016-10-25T02:19:20.861Z,1008.52
2016-10-25T02:20:20.848Z,1008.55
2016-10-25T02:21:20.832Z,1008.53
2016-10-25T02:22:20.819Z,1008.54
2016-10-25T02:23:20.802Z,1008.6
2016-10-25T02:24:20.787Z,1008.57
2016-10-25T02:25:20.777Z,1008.61
2016-10-25T02:26:20.760Z,1008.64
2016-10-25T02:27:20.745Z,1008.61
2016-10-25T02:28:20.734Z,1008.65
2016-10-25T02:29:20.764Z,1008.65
2016-10-25T02:30:20.701Z,1008.66
2016-10-25T02:31:20.702Z,1008.63
2016-10-25T02:32:20.672Z,1008.64
2016-10-25T02:33:20.658Z,1008.67
2016-10-25T02:34:20.643Z,1008.64
2016-10-25T02:35:20.629Z,1008.66
2016-10-25T02:36:20.665Z,1008.65
2016-10-25T02:37:20.602Z,1008.67
2016-10-25T02:38:20.588Z,1008.64
2016-10-25T02:39:20.570Z,1008.64
2016-10-25T02:40:20.558Z,1008.65
2016-10-25T02:41:20.541Z,1008.68
2016-10-25T02:42:20.525Z,1008.64
2016-10-25T02:43:20.513Z,1008.66
2016-10-25T02:44:20.500Z,1008.65
2016-10-25T02:45:20.483Z,1008.73
2016-10-25T02:46:20.470Z,1008.74
2016-10-25T02:47:20.456Z,1008.71
2016-10-25T02:48:20.440Z,1008.73
2016-10-25T02:49:20.426Z,1008.72
2016-10-25T02:50:20.411Z,1008.7
2016-10-25T02:51:20.396Z,1008.75
2016-10-25T02:52:20.381Z,1008.72
2016-10-25T02:53:20.367Z,1008.71
2016-10-25T02:54:20.352Z,1008.73
2016-10-25T02:55:20.338Z,1008.73
2016-10-25T02:56:20.329Z,1008.77
2016-10-25T02:57:20.308Z,1008.79
2016-10-25T02:58:20.298Z,1008.76
2016-10-25T02:59:20.279Z,1008.78
2016-10-25T03:00:20.265Z,1008.86
2016-10-25T03:01:20.250Z,1008.84
2016-10-25T03:02:20.235Z,1008.86
2016-10-25T03:03:20.219Z,1008.85
2016-10-25T03:04:20.208Z,1008.86
2016-10-25T03:05:20.190Z,1008.86
2016-10-25T03:06:20.177Z,1008.87
2016-10-25T03:07:20.168Z,1008.83
2016-10-25T03:08:20.148Z,1008.85
2016-10-25T03:09:20.155Z,1008.82
2016-10-25T03:10:20.124Z,1008.87
2016-10-25T03:11:20.105Z,1008.85
2016-10-25T03:12:20.091Z,1008.89
2016-10-25T03:13:20.073Z,1008.85
2016-10-25T03:14:20.062Z,1008.89
2016-10-25T03:15:20.045Z,1008.88
2016-10-25T03:16:20.033Z,1008.94
2016-10-25T03:17:20.018Z,1008.98
2016-10-25T03:18:20.001Z,1009.02
2016-10-25T03:19:19.990Z,1009.04
2016-10-25T03:20:19.974Z,1009.07
2016-10-25T03:21:19.959Z,1009.08
2016-10-25T03:22:19.944Z,1009.1
2016-10-25T03:23:19.929Z,1009.1
2016-10-25T03:24:19.914Z,1009.07
2016-10-25T03:25:19.901Z,1009.05
2016-10-25T03:26:19.889Z,1009.08
2016-10-25T03:27:19.873Z,1009.05
2016-10-25T03:28:19.860Z,1009.12
2016-10-25T03:29:19.843Z,1009.16
2016-10-25T03:30:19.832Z,1009.19
2016-10-25T03:31:19.815Z,1009.17
2016-10-25T03:32:19.798Z,1009.2
2016-10-25T03:33:19.784Z,1009.2
2016-10-25T03:34:19.774Z,1009.22
2016-10-25T03:35:19.756Z,1009.24
2016-10-25T03:36:19.742Z,1009.24
2016-10-25T03:37:19.726Z,1009.22
2016-10-25T03:38:19.715Z,1009.24
2016-10-25T03:39:19.698Z,1009.28
2016-10-25T03:40:19.684Z,1009.3
2016-10-25T03:41:19.668Z,1009.3
2016-10-25T03:42:19.653Z,1009.32
2016-10-25T03:43:19.641Z,1009.33
2016-10-25T03:44:19.624Z,1009.35
2016-10-25T03:45:19.613Z,1009.35
2016-10-25T03:46:19.595Z,1009.36
2016-10-25T03:47:19.583Z,1009.35
2016-10-25T03:48:19.565Z,1009.33
2016-10-25T03:49:19.553Z,1009.35
2016-10-25T03:50:19.740Z,1009.31
2016-10-25T03:51:19.523Z,1009.32
2016-10-25T03:52:19.508Z,1009.28
2016-10-25T03:53:19.494Z,1009.27
2016-10-25T03:54:19.478Z,1009.3
2016-10-25T03:55:19.465Z,1009.3
2016-10-25T03:56:19.451Z,1009.28
2016-10-25T03:57:19.437Z,1009.28
2016-10-25T03:58:19.420Z,1009.3
2016-10-25T03:59:19.405Z,1009.3
2016-10-25T04:00:19.395Z,1009.36
2016-10-25T04:01:19.377Z,1009.32
2016-10-25T04:02:19.362Z,1009.32
2016-10-25T04:03:19.349Z,1009.34
2016-10-25T04:04:19.336Z,1009.35
2016-10-25T04:05:19.317Z,1009.36
2016-10-25T04:06:19.303Z,1009.34
2016-10-25T04:07:19.289Z,1009.38
2016-10-25T04:08:19.276Z,1009.39
2016-10-25T04:09:19.261Z,1009.43
2016-10-25T04:10:19.247Z,1009.44
2016-10-25T04:11:19.232Z,1009.41
2016-10-25T04:12:19.219Z,1009.4
2016-10-25T04:13:19.201Z,1009.38
2016-10-25T04:14:19.187Z,1009.32
2016-10-25T04:15:19.173Z,1009.35
2016-10-25T04:16:19.207Z,1009.35
2016-10-25T04:17:19.145Z,1009.37
2016-10-25T04:18:19.129Z,1009.39
2016-10-25T04:19:19.115Z,1009.35
2016-10-25T04:20:19.104Z,1009.36
2016-10-25T04:21:19.086Z,1009.33
2016-10-25T04:22:19.072Z,1009.31
2016-10-25T04:23:19.057Z,1009.38
2016-10-25T04:24:19.040Z,1009.38
2016-10-25T04:25:19.027Z,1009.43
2016-10-25T04:26:19.013Z,1009.44
2016-10-25T04:27:18.997Z,1009.42
2016-10-25T04:28:18.986Z,1009.42
2016-10-25T04:29:18.968Z,1009.45
2016-10-25T04:30:18.958Z,1009.46
2016-10-25T04:31:18.940Z,1009.43
2016-10-25T04:32:18.926Z,1009.43
2016-10-25T04:33:18.915Z,1009.43
2016-10-25T04:34:18.898Z,1009.47
2016-10-25T04:35:18.880Z,1009.45
2016-10-25T04:36:18.869Z,1009.46
2016-10-25T04:37:18.851Z,1009.52
2016-10-25T04:38:18.838Z,1009.57
2016-10-25T04:39:18.822Z,1009.63
2016-10-25T04:40:18.808Z,1009.67
2016-10-25T04:41:18.793Z,1009.73
2016-10-25T04:42:18.778Z,1009.76
2016-10-25T04:43:18.766Z,1009.79
2016-10-25T04:44:18.750Z,1009.76
2016-10-25T04:45:18.736Z,1009.85
2016-10-25T04:46:18.720Z,1009.85
2016-10-25T04:47:18.705Z,1009.89
2016-10-25T04:48:18.689Z,1009.93
2016-10-25T04:49:18.688Z,1009.92
2016-10-25T04:50:18.664Z,1009.92
2016-10-25T04:51:18.648Z,1009.92
2016-10-25T04:52:18.632Z,1009.91
2016-10-25T04:53:18.617Z,1009.92
2016-10-25T04:54:18.602Z,1009.94
2016-10-25T04:55:18.597Z,1009.99
2016-10-25T04:56:18.573Z,1010.01
2016-10-25T04:57:18.563Z,1010.02
2016-10-25T04:58:18.543Z,1010.05
2016-10-25T04:59:18.530Z,1010.13
2016-10-25T05:00:18.514Z,1010.15
2016-10-25T05:01:18.498Z,1010.19
2016-10-25T05:02:18.487Z,1010.21
2016-10-25T05:03:18.470Z,1010.26
2016-10-25T05:04:18.455Z,1010.27
2016-10-25T05:05:18.443Z,1010.27
2016-10-25T05:06:18.437Z,1010.27
2016-10-25T05:07:18.416Z,1010.24
2016-10-25T05:08:18.395Z,1010.25
2016-10-25T05:09:18.381Z,1010.27
2016-10-25T05:10:18.371Z,1010.28
2016-10-25T05:11:18.351Z,1010.31
2016-10-25T05:12:18.340Z,1010.31
2016-10-25T05:13:18.324Z,1010.31
2016-10-25T05:14:18.309Z,1010.34
2016-10-25T05:15:18.293Z,1010.33
2016-10-25T05:16:18.279Z,1010.42
2016-10-25T05:17:18.265Z,1010.42
2016-10-25T05:18:18.248Z,1010.42
2016-10-25T05:19:18.233Z,1010.49
2016-10-25T05:20:18.220Z,1010.48
2016-10-25T05:21:18.203Z,1010.51
2016-10-25T05:22:18.190Z,1010.51
2016-10-25T05:23:18.174Z,1010.47
2016-10-25T05:24:18.160Z,1010.51
2016-10-25T05:25:18.144Z,1010.55
2016-10-25T05:26:18.131Z,1010.6
2016-10-25T05:27:18.116Z,1010.61
2016-10-25T05:28:18.101Z,1010.62
2016-10-25T05:29:18.084Z,1010.66
2016-10-25T05:30:18.069Z,1010.7
2016-10-25T05:31:18.055Z,1010.69
2016-10-25T05:32:18.042Z,1010.73
2016-10-25T05:33:18.026Z,1010.76
2016-10-25T05:34:18.011Z,1010.79
2016-10-25T05:35:17.997Z,1010.83
2016-10-25T05:36:17.981Z,1010.85
2016-10-25T05:37:17.969Z,1010.89
2016-10-25T05:38:17.951Z,1010.91
2016-10-25T05:39:17.937Z,1010.93
2016-10-25T05:40:17.921Z,1010.92
2016-10-25T05:41:17.907Z,1010.9
2016-10-25T05:42:17.893Z,1010.9
2016-10-25T05:43:17.878Z,1010.88
2016-10-25T05:44:17.862Z,1010.86
2016-10-25T05:45:17.846Z,1010.88
2016-10-25T05:46:17.833Z,1010.9
2016-10-25T05:47:17.826Z,1010.91
2016-10-25T05:48:17.844Z,1010.93
2016-10-25T05:49:17.787Z,1010.94
2016-10-25T05:50:17.773Z,1010.96
2016-10-25T05:51:17.756Z,1010.99
2016-10-25T05:52:17.742Z,1010.96
2016-10-25T05:53:17.732Z,1010.95
2016-10-25T05:54:17.711Z,1010.97
2016-10-25T05:55:17.699Z,1010.96
2016-10-25T05:56:17.682Z,1010.96
2016-10-25T05:57:17.668Z,1010.99
2016-10-25T05:58:17.653Z,1011
2016-10-25T05:59:17.637Z,1010.98
2016-10-25T06:00:17.623Z,1011.03
2016-10-25T06:01:17.610Z,1011.07
2016-10-25T06:02:17.592Z,1011.12
2016-10-25T06:03:17.579Z,1011.14
2016-10-25T06:04:17.566Z,1011.19
2016-10-25T06:05:17.548Z,1011.2
2016-10-25T06:06:17.533Z,1011.24
2016-10-25T06:07:17.519Z,1011.25
2016-10-25T06:08:17.506Z,1011.31
2016-10-25T06:09:17.492Z,1011.33
2016-10-25T06:10:17.473Z,1011.3
2016-10-25T06:11:17.458Z,1011.35
2016-10-25T06:12:17.446Z,1011.4
2016-10-25T06:13:17.428Z,1011.39
2016-10-25T06:14:17.414Z,1011.41
2016-10-25T06:15:17.410Z,1011.4
2016-10-25T06:16:17.388Z,1011.38
2016-10-25T06:17:17.371Z,1011.42
2016-10-25T06:18:17.358Z,1011.37
2016-10-25T06:19:17.343Z,1011.38
2016-10-25T06:20:17.326Z,1011.4
2016-10-25T06:21:17.314Z,1011.42
2016-10-25T06:22:17.295Z,1011.4
2016-10-25T06:23:17.280Z,1011.43
2016-10-25T06:24:17.266Z,1011.47
2016-10-25T06:25:17.251Z,1011.5
2016-10-25T06:26:17.236Z,1011.57
2016-10-25T06:27:17.222Z,1011.55
2016-10-25T06:28:17.205Z,1011.56
2016-10-25T06:29:17.190Z,1011.57
2016-10-25T06:30:17.177Z,1011.58
2016-10-25T06:31:17.162Z,1011.57
2016-10-25T06:32:17.148Z,1011.58
2016-10-25T06:33:17.132Z,1011.52
2016-10-25T06:34:17.118Z,1011.52
2016-10-25T06:35:17.103Z,1011.5
2016-10-25T06:36:17.087Z,1011.53
2016-10-25T06:37:17.073Z,1011.55
2016-10-25T06:38:17.059Z,1011.59
2016-10-25T06:39:17.044Z,1011.63
2016-10-25T06:40:17.028Z,1011.65
2016-10-25T06:41:17.015Z,1011.75
2016-10-25T06:42:16.997Z,1011.8
2016-10-25T06:43:16.985Z,1011.85
2016-10-25T06:44:16.969Z,1011.86
2016-10-25T06:45:16.954Z,1011.86
2016-10-25T06:46:16.940Z,1011.84
2016-10-25T06:47:16.929Z,1011.85
2016-10-25T06:48:16.919Z,1011.86
2016-10-25T06:49:16.896Z,1011.89
2016-10-25T06:50:16.881Z,1011.91
2016-10-25T06:51:16.867Z,1011.92
2016-10-25T06:52:16.850Z,1011.97
2016-10-25T06:53:16.834Z,1011.98
2016-10-25T06:54:16.820Z,1012
2016-10-25T06:55:16.804Z,1012.05
2016-10-25T06:56:16.790Z,1012.09
2016-10-25T06:57:16.774Z,1012.06
2016-10-25T06:58:16.759Z,1012.08
2016-10-25T06:59:16.746Z,1012.07
2016-10-25T07:00:16.731Z,1012.07
2016-10-25T07:01:16.716Z,1012.09
2016-10-25T07:02:16.701Z,1012.06
2016-10-25T07:03:16.687Z,1012.1
2016-10-25T07:04:16.670Z,1012.11
2016-10-25T07:05:16.655Z,1012.12
2016-10-25T07:06:16.641Z,1012.11
2016-10-25T07:07:16.626Z,1012.12
2016-10-25T07:08:16.610Z,1012.12
2016-10-25T07:09:16.597Z,1012.13
2016-10-25T07:10:16.581Z,1012.16
2016-10-25T07:11:16.567Z,1012.19
2016-10-25T07:12:16.551Z,1012.21
2016-10-25T07:13:16.538Z,1012.23
2016-10-25T07:14:16.524Z,1012.24
2016-10-25T07:15:16.508Z,1012.25
2016-10-25T07:16:16.493Z,1012.3
2016-10-25T07:17:16.478Z,1012.26
2016-10-25T07:18:16.468Z,1012.3
2016-10-25T07:19:16.451Z,1012.32
2016-10-25T07:20:16.437Z,1012.34
2016-10-25T07:21:16.418Z,1012.33
2016-10-25T07:22:16.408Z,1012.31
2016-10-25T07:23:16.388Z,1012.37
2016-10-25T07:24:16.373Z,1012.39
2016-10-25T07:25:16.363Z,1012.37
2016-10-25T07:26:16.346Z,1012.41
2016-10-25T07:27:16.328Z,1012.45
2016-10-25T07:28:16.313Z,1012.53
2016-10-25T07:29:16.300Z,1012.52
2016-10-25T07:30:16.284Z,1012.55
2016-10-25T07:31:16.270Z,1012.6
2016-10-25T07:32:16.254Z,1012.59
2016-10-25T07:33:16.239Z,1012.61
2016-10-25T07:34:16.227Z,1012.63
2016-10-25T07:35:16.212Z,1012.57
2016-10-25T07:36:16.196Z,1012.6
2016-10-25T07:37:16.179Z,1012.58
2016-10-25T07:38:16.169Z,1012.57
2016-10-25T07:39:16.151Z,1012.61
2016-10-25T07:40:16.139Z,1012.62
2016-10-25T07:41:16.129Z,1012.66
2016-10-25T07:42:16.106Z,1012.65
2016-10-25T07:43:16.092Z,1012.72
2016-10-25T07:44:16.075Z,1012.74
2016-10-25T07:45:16.059Z,1012.74
2016-10-25T07:46:16.045Z,1012.7
2016-10-25T07:47:16.030Z,1012.74
2016-10-25T07:48:16.015Z,1012.74
2016-10-25T07:49:16.002Z,1012.72
2016-10-25T07:50:15.984Z,1012.81
2016-10-25T07:51:16.172Z,1012.81
2016-10-25T07:52:15.955Z,1012.83
2016-10-25T07:53:15.939Z,1012.84
2016-10-25T07:54:15.928Z,1012.89
2016-10-25T07:55:15.910Z,1012.88
2016-10-25T07:56:15.894Z,1012.94
2016-10-25T07:57:15.881Z,1012.92
2016-10-25T07:58:15.867Z,1012.96
2016-10-25T07:59:15.850Z,1012.97
2016-10-25T08:00:15.836Z,1013
2016-10-25T08:01:15.822Z,1012.99
2016-10-25T08:02:15.810Z,1013.02
2016-10-25T08:03:15.791Z,1013.04
2016-10-25T08:04:15.777Z,1013.03
2016-10-25T08:05:15.763Z,1013.08
2016-10-25T08:06:15.746Z,1013.08
2016-10-25T08:07:15.733Z,1013.08
2016-10-25T08:08:15.719Z,1013.14
2016-10-25T08:09:15.702Z,1013.11
2016-10-25T08:10:15.687Z,1013.12
2016-10-25T08:11:15.675Z,1013.12
2016-10-25T08:12:15.658Z,1013.17
2016-10-25T08:13:15.643Z,1013.15
2016-10-25T08:14:15.628Z,1013.14
2016-10-25T08:15:15.612Z,1013.19
2016-10-25T08:16:15.599Z,1013.16
2016-10-25T08:17:15.582Z,1013.2
2016-10-25T08:18:15.570Z,1013.24
2016-10-25T08:19:15.554Z,1013.24
2016-10-25T08:20:15.537Z,1013.25
2016-10-25T08:21:15.522Z,1013.25
2016-10-25T08:22:15.507Z,1013.28
2016-10-25T08:23:15.492Z,1013.32
2016-10-25T08:24:15.479Z,1013.31
2016-10-25T08:25:15.462Z,1013.3
2016-10-25T08:26:15.449Z,1013.31
2016-10-25T08:27:15.433Z,1013.32
2016-10-25T08:28:15.416Z,1013.36
2016-10-25T08:29:15.402Z,1013.34
2016-10-25T08:30:15.387Z,1013.35
2016-10-25T08:31:15.373Z,1013.31
2016-10-25T08:32:15.357Z,1013.32
2016-10-25T08:33:15.342Z,1013.29
2016-10-25T08:34:15.327Z,1013.31
2016-10-25T08:35:15.315Z,1013.3
2016-10-25T08:36:15.296Z,1013.28
2016-10-25T08:37:15.282Z,1013.27
2016-10-25T08:38:15.268Z,1013.23
2016-10-25T08:39:15.253Z,1013.25
2016-10-25T08:40:15.236Z,1013.3
2016-10-25T08:41:15.224Z,1013.26
2016-10-25T08:42:15.207Z,1013.31
2016-10-25T08:43:15.192Z,1013.3
2016-10-25T08:44:15.178Z,1013.27
2016-10-25T08:45:15.162Z,1013.29
2016-10-25T08:46:15.146Z,1013.34
2016-10-25T08:47:15.130Z,1013.3
2016-10-25T08:48:15.117Z,1013.28
2016-10-25T08:49:15.105Z,1013.29
2016-10-25T08:50:15.086Z,1013.19
2016-10-25T08:51:15.070Z,1013.25
2016-10-25T08:52:15.056Z,1013.27
2016-10-25T08:53:15.041Z,1013.28
2016-10-25T08:54:15.026Z,1013.3
2016-10-25T08:55:15.011Z,1013.33
2016-10-25T08:56:14.996Z,1013.3
2016-10-25T08:57:14.982Z,1013.32
2016-10-25T08:58:14.965Z,1013.33
2016-10-25T08:59:14.953Z,1013.36
2016-10-25T09:00:14.938Z,1013.29
2016-10-25T09:01:14.921Z,1013.29
2016-10-25T09:02:14.905Z,1013.27
2016-10-25T09:03:14.892Z,1013.24
2016-10-25T09:04:14.877Z,1013.25
2016-10-25T09:05:14.862Z,1013.26
2016-10-25T09:06:14.850Z,1013.23
2016-10-25T09:07:14.840Z,1013.27
2016-10-25T09:08:14.820Z,1013.32
2016-10-25T09:09:14.803Z,1013.34
2016-10-25T09:10:14.788Z,1013.4
2016-10-25T09:11:14.775Z,1013.34
2016-10-25T09:12:14.758Z,1013.37
2016-10-25T09:13:14.745Z,1013.34
2016-10-25T09:14:14.728Z,1013.35
2016-10-25T09:15:14.715Z,1013.35
2016-10-25T09:16:14.700Z,1013.36
2016-10-25T09:17:14.685Z,1013.38
2016-10-25T09:18:14.670Z,1013.4
2016-10-25T09:19:14.655Z,1013.38
2016-10-25T09:20:14.639Z,1013.4
2016-10-25T09:21:14.625Z,1013.45
2016-10-25T09:22:14.611Z,1013.48
2016-10-25T09:23:14.596Z,1013.46
2016-10-25T09:24:14.581Z,1013.49
2016-10-25T09:25:14.571Z,1013.54
2016-10-25T09:26:14.553Z,1013.53
2016-10-25T09:27:14.538Z,1013.54
2016-10-25T09:28:14.524Z,1013.49
2016-10-25T09:29:14.508Z,1013.52
2016-10-25T09:30:14.493Z,1013.53
2016-10-25T09:31:14.478Z,1013.58
2016-10-25T09:32:14.464Z,1013.6
2016-10-25T09:33:14.451Z,1013.63
2016-10-25T09:34:14.436Z,1013.67
2016-10-25T09:35:14.421Z,1013.6
2016-10-25T09:36:14.409Z,1013.65
2016-10-25T09:37:14.394Z,1013.65
2016-10-25T09:38:14.376Z,1013.65
2016-10-25T09:39:14.363Z,1013.71
2016-10-25T09:40:14.349Z,1013.73
2016-10-25T09:41:14.336Z,1013.71
2016-10-25T09:42:14.320Z,1013.7
2016-10-25T09:43:14.307Z,1013.69
2016-10-25T09:44:14.296Z,1013.71
2016-10-25T09:45:14.279Z,1013.74
2016-10-25T09:46:14.267Z,1013.74
2016-10-25T09:47:14.250Z,1013.76
2016-10-25T09:48:14.238Z,1013.8
2016-10-25T09:49:14.221Z,1013.81
2016-10-25T09:50:14.207Z,1013.81
2016-10-25T09:51:14.395Z,1013.87
2016-10-25T09:52:14.179Z,1013.91
2016-10-25T09:53:14.165Z,1013.91
2016-10-25T09:54:14.151Z,1013.97
2016-10-25T09:55:14.137Z,1013.96
2016-10-25T09:56:14.124Z,1014
2016-10-25T09:57:14.110Z,1014.02
2016-10-25T09:58:14.096Z,1014
2016-10-25T09:59:14.081Z,1014.05
2016-10-25T10:00:14.067Z,1014.06
2016-10-25T10:01:14.052Z,1014.07
2016-10-25T10:02:14.041Z,1014.05
2016-10-25T10:03:14.024Z,1014.05
2016-10-25T10:04:14.012Z,1014.11
2016-10-25T10:05:13.998Z,1014.12
2016-10-25T10:06:13.984Z,1014.14
2016-10-25T10:07:13.970Z,1014.14
2016-10-25T10:08:13.956Z,1014.13
2016-10-25T10:09:13.943Z,1014.12
2016-10-25T10:10:13.928Z,1014.11
2016-10-25T10:11:13.915Z,1014.09
2016-10-25T10:12:13.902Z,1014.1
2016-10-25T10:13:13.888Z,1014.07
2016-10-25T10:14:13.873Z,1014.16
2016-10-25T10:15:13.861Z,1014.14
2016-10-25T10:16:13.850Z,1014.19
2016-10-25T10:17:13.832Z,1014.23
2016-10-25T10:18:13.818Z,1014.27
2016-10-25T10:19:13.804Z,1014.29
2016-10-25T10:20:13.792Z,1014.32
2016-10-25T10:21:13.776Z,1014.35
2016-10-25T10:22:13.761Z,1014.36
2016-10-25T10:23:13.750Z,1014.38
2016-10-25T10:24:13.735Z,1014.42
2016-10-25T10:25:13.722Z,1014.47
2016-10-25T10:26:13.708Z,1014.44
2016-10-25T10:27:13.695Z,1014.48
2016-10-25T10:28:13.680Z,1014.5
2016-10-25T10:29:13.665Z,1014.48
2016-10-25T10:30:13.650Z,1014.5
2016-10-25T10:31:13.639Z,1014.46
2016-10-25T10:32:13.626Z,1014.51
2016-10-25T10:33:13.626Z,1014.55
2016-10-25T10:34:13.597Z,1014.54
2016-10-25T10:35:13.586Z,1014.52
2016-10-25T10:36:13.568Z,1014.52
2016-10-25T10:37:13.553Z,1014.56
2016-10-25T10:38:13.540Z,1014.54
2016-10-25T10:39:13.528Z,1014.59
2016-10-25T10:40:13.515Z,1014.57
2016-10-25T10:41:13.500Z,1014.54
2016-10-25T10:42:13.494Z,1014.56
2016-10-25T10:43:13.470Z,1014.53
2016-10-25T10:44:13.457Z,1014.58
2016-10-25T10:45:13.440Z,1014.59
2016-10-25T10:46:13.427Z,1014.59
2016-10-25T10:47:13.413Z,1014.59
2016-10-25T10:48:13.400Z,1014.57
2016-10-25T10:49:13.395Z,1014.6
2016-10-25T10:50:13.371Z,1014.59
2016-10-25T10:51:13.357Z,1014.62
2016-10-25T10:52:13.342Z,1014.62
2016-10-25T10:53:13.330Z,1014.63
2016-10-25T10:54:13.315Z,1014.6
2016-10-25T10:55:13.302Z,1014.61
2016-10-25T10:56:13.288Z,1014.61
2016-10-25T10:57:13.277Z,1014.63
2016-10-25T10:58:13.260Z,1014.64
2016-10-25T10:59:13.244Z,1014.58
2016-10-25T11:00:13.233Z,1014.57
2016-10-25T11:01:13.218Z,1014.58
2016-10-25T11:02:13.203Z,1014.61
2016-10-25T11:03:13.189Z,1014.57
2016-10-25T11:04:13.176Z,1014.64
2016-10-25T11:05:13.164Z,1014.61
2016-10-25T11:06:13.148Z,1014.66
2016-10-25T11:07:13.135Z,1014.68
2016-10-25T11:08:13.122Z,1014.66
2016-10-25T11:09:13.105Z,1014.7
2016-10-25T11:10:13.093Z,1014.72
2016-10-25T11:11:13.186Z,1014.69
2016-10-25T11:12:13.072Z,1014.71
2016-10-25T11:13:13.055Z,1014.69
2016-10-25T11:14:13.037Z,1014.69
2016-10-25T11:15:13.024Z,1014.71
2016-10-25T11:16:13.010Z,1014.72
2016-10-25T11:17:12.997Z,1014.71
2016-10-25T11:18:12.981Z,1014.76
2016-10-25T11:19:12.969Z,1014.74
2016-10-25T11:20:12.953Z,1014.76
2016-10-25T11:21:12.941Z,1014.76
2016-10-25T11:22:12.926Z,1014.75
2016-10-25T11:23:12.913Z,1014.76
2016-10-25T11:24:12.899Z,1014.74
2016-10-25T11:25:12.886Z,1014.77
2016-10-25T11:26:12.876Z,1014.8
2016-10-25T11:27:12.863Z,1014.76
2016-10-25T11:28:12.847Z,1014.79
2016-10-25T11:29:12.832Z,1014.78
2016-10-25T11:30:12.818Z,1014.82
2016-10-25T11:31:12.803Z,1014.84
2016-10-25T11:32:12.788Z,1014.82
2016-10-25T11:33:12.774Z,1014.82
2016-10-25T11:34:12.761Z,1014.85
2016-10-25T11:35:12.747Z,1014.91
2016-10-25T11:36:12.734Z,1014.9
2016-10-25T11:37:12.719Z,1014.9
2016-10-25T11:38:12.704Z,1014.88
2016-10-25T11:39:12.692Z,1014.9
2016-10-25T11:40:12.678Z,1014.88
2016-10-25T11:41:12.664Z,1014.9
2016-10-25T11:42:12.651Z,1014.89
2016-10-25T11:43:12.636Z,1014.84
2016-10-25T11:44:12.623Z,1014.86
2016-10-25T11:45:12.610Z,1014.85
2016-10-25T11:46:12.595Z,1014.84
2016-10-25T11:47:12.584Z,1014.87
2016-10-25T11:48:12.567Z,1014.83
2016-10-25T11:49:12.554Z,1014.84
2016-10-25T11:50:12.540Z,1014.86
2016-10-25T11:51:12.728Z,1014.89
2016-10-25T11:52:12.512Z,1014.9
2016-10-25T11:53:12.500Z,1014.94
2016-10-25T11:54:12.484Z,1014.94
2016-10-25T11:55:12.472Z,1014.97
2016-10-25T11:56:12.461Z,1014.98
2016-10-25T11:57:12.443Z,1014.96
2016-10-25T11:58:12.433Z,1014.97
2016-10-25T11:59:12.598Z,1014.97
2016-10-25T12:00:12.407Z,1014.96
2016-10-25T12:01:12.395Z,1014.94
2016-10-25T12:02:12.374Z,1014.9
2016-10-25T12:03:12.365Z,1014.91
2016-10-25T12:04:12.346Z,1014.94
2016-10-25T12:05:12.333Z,1014.94
2016-10-25T12:06:12.330Z,1014.92
2016-10-25T12:07:12.307Z,1014.94
2016-10-25T12:08:12.289Z,1014.98